createdAt,value
2018-12-17T00:01:22.022Z,96.37
2018-12-17T00:05:30.606Z,95.89
2018-12-17T00:09:39.753Z,95.58
2018-12-17T00:13:45.741Z,95.72
2018-12-17T00:17:51.859Z,95.85
2018-12-17T00:21:57.680Z,96.46
2018-12-17T00:26:03.630Z,97.05
2018-12-17T00:30:11.039Z,96.75
2018-12-17T00:34:17.096Z,96.67
2018-12-17T00:38:22.960Z,96.97
2018-12-17T00:42:28.698Z,97.06
2018-12-17T00:46:35.039Z,96.80
2018-12-17T00:50:41.230Z,96.81
2018-12-17T00:54:46.953Z,96.78
2018-12-17T00:58:52.874Z,97.37
2018-12-17T01:02:58.807Z,97.12
2018-12-17T01:07:04.802Z,97.36
2018-12-17T01:11:10.893Z,97.21
2018-12-17T01:15:16.674Z,97.39
2018-12-17T01:19:23.755Z,98.32
2018-12-17T01:23:29.556Z,97.90
2018-12-17T01:27:35.879Z,97.50
2018-12-17T01:31:41.462Z,96.49
2018-12-17T01:35:47.288Z,96.52
2018-12-17T01:39:53.086Z,97.24
2018-12-17T01:43:58.893Z,97.28
2018-12-17T01:48:04.921Z,96.96
2018-12-17T01:52:10.923Z,96.61
2018-12-17T01:56:16.679Z,97.30
2018-12-17T02:00:22.599Z,96.63
2018-12-17T02:04:28.355Z,96.91
2018-12-17T02:08:34.605Z,97.30
2018-12-17T02:12:41.034Z,97.24
2018-12-17T02:16:47.005Z,96.37
2018-12-17T02:20:52.882Z,97.18
2018-12-17T02:24:58.390Z,97.12
2018-12-17T02:29:04.207Z,96.79
2018-12-17T02:33:10.014Z,96.45
2018-12-17T02:37:15.909Z,97.11
2018-12-17T02:41:22.395Z,96.79
2018-12-17T02:45:28.370Z,97.60
2018-12-17T02:49:34.322Z,97.65
2018-12-17T02:53:40.069Z,97.37
2018-12-17T02:57:45.895Z,98.14
2018-12-17T03:01:52.893Z,97.44
2018-12-17T03:05:58.963Z,97.40
2018-12-17T03:10:05.599Z,98.03
2018-12-17T03:14:11.350Z,97.60
2018-12-17T03:18:17.198Z,97.58
2018-12-17T03:22:23.328Z,98.15
2018-12-17T03:26:29.140Z,98.47
2018-12-17T03:30:35.026Z,98.41
2018-12-17T03:34:40.945Z,98.20
2018-12-17T03:38:47.173Z,98.36
2018-12-17T03:42:53.122Z,98.50
2018-12-17T03:47:00.090Z,98.64
2018-12-17T03:51:06.060Z,99.20
2018-12-17T03:55:12.091Z,99.40
2018-12-17T03:59:17.893Z,98.75
2018-12-17T04:03:23.720Z,98.93
2018-12-17T04:07:29.474Z,99.08
2018-12-17T04:11:35.385Z,98.61
2018-12-17T04:15:41.163Z,98.89
2018-12-17T04:19:46.904Z,98.91
2018-12-17T04:23:52.718Z,98.14
2018-12-17T04:28:00.610Z,97.83
2018-12-17T04:32:06.338Z,97.87
2018-12-17T04:36:12.201Z,98.10
2018-12-17T04:40:18.138Z,97.37
2018-12-17T04:44:24.026Z,97.12
2018-12-17T04:48:30.060Z,96.74
2018-12-17T04:52:35.919Z,97.16
2018-12-17T04:56:41.684Z,97.33
2018-12-17T05:00:47.634Z,96.97
2018-12-17T05:04:53.415Z,96.61
2018-12-17T05:08:59.386Z,96.62
2018-12-17T05:13:05.286Z,96.41
2018-12-17T05:17:11.336Z,96.62
2018-12-17T05:21:17.164Z,96.22
2018-12-17T05:25:23.091Z,96.16
2018-12-17T05:29:29.540Z,95.83
2018-12-17T05:33:35.588Z,95.67
2018-12-17T05:37:41.820Z,96.06
2018-12-17T05:41:47.751Z,96.07
2018-12-17T05:45:53.661Z,96.02
2018-12-17T05:49:59.662Z,95.59
2018-12-17T05:54:05.571Z,95.67
2018-12-17T05:58:11.409Z,96.35
2018-12-17T06:02:17.250Z,96.62
2018-12-17T06:06:24.118Z,96.63
2018-12-17T06:10:30.816Z,97.10
2018-12-17T06:14:36.662Z,98.02
2018-12-17T06:18:44.043Z,98.07
2018-12-17T06:22:50.265Z,98.38
2018-12-17T06:26:56.507Z,98.58
2018-12-17T06:31:02.619Z,98.57
2018-12-17T06:35:08.888Z,98.39
2018-12-17T06:39:14.945Z,98.82
2018-12-17T06:43:21.097Z,99.35
2018-12-17T06:47:26.981Z,98.59
2018-12-17T06:51:33.751Z,99.36
2018-12-17T06:55:39.587Z,99.70
2018-12-17T06:59:45.400Z,99.44
2018-12-17T07:03:51.104Z,99.36
2018-12-17T07:07:56.668Z,98.92
2018-12-17T07:12:02.333Z,99.17
2018-12-17T07:16:07.922Z,98.89
2018-12-17T07:20:13.590Z,99.27
2018-12-17T07:24:19.350Z,99.53
2018-12-17T07:28:25.658Z,99.12
2018-12-17T07:32:31.235Z,99.23
2018-12-17T07:36:37.304Z,99.25
2018-12-17T07:40:43.215Z,99.02
2018-12-17T07:44:48.758Z,98.98
2018-12-17T07:48:54.322Z,99.26
2018-12-17T07:53:00.477Z,98.48
2018-12-17T07:57:06.103Z,99.24
2018-12-17T08:01:11.716Z,99.35
2018-12-17T08:05:17.568Z,99.34
2018-12-17T08:09:23.347Z,99.21
2018-12-17T08:13:29.205Z,99.65
2018-12-17T08:17:36.002Z,99.58
2018-12-17T08:21:42.371Z,99.89
2018-12-17T08:25:48.224Z,99.85
2018-12-17T08:29:53.924Z,100.00
2018-12-17T08:33:59.781Z,99.91
2018-12-17T08:38:05.509Z,100.00
2018-12-17T08:42:11.098Z,100.00
2018-12-17T08:46:17.011Z,100.00
2018-12-17T08:50:22.762Z,100.00
2018-12-17T08:54:28.498Z,100.00
2018-12-17T08:58:34.360Z,99.92
2018-12-17T09:02:39.991Z,100.00
2018-12-17T09:06:45.580Z,100.00
2018-12-17T09:10:51.130Z,100.00
2018-12-17T09:14:56.806Z,99.96
2018-12-17T09:19:02.358Z,99.99
2018-12-17T09:23:08.021Z,99.95
2018-12-17T09:27:13.875Z,99.42
2018-12-17T09:31:19.456Z,99.74
2018-12-17T09:35:25.271Z,99.31
2018-12-17T09:39:30.911Z,99.64
2018-12-17T09:43:36.517Z,99.06
2018-12-17T09:47:42.094Z,98.53
2018-12-17T09:51:47.863Z,99.02
2018-12-17T09:55:53.420Z,98.70
2018-12-17T09:59:59.040Z,98.17
2018-12-17T10:04:07.723Z,98.29
2018-12-17T10:08:13.398Z,98.30
2018-12-17T10:12:19.458Z,98.31
2018-12-17T10:16:25.052Z,97.76
2018-12-17T10:20:30.831Z,98.12
2018-12-17T10:24:36.751Z,98.43
2018-12-17T10:28:42.303Z,97.74
2018-12-17T10:32:47.918Z,98.23
2018-12-17T10:36:53.518Z,97.78
2018-12-17T10:40:59.165Z,97.62
2018-12-17T10:45:05.822Z,97.61
2018-12-17T10:49:11.483Z,97.35
2018-12-17T10:53:17.146Z,97.16
2018-12-17T10:57:23.025Z,97.87
2018-12-17T11:01:33.955Z,97.62
2018-12-17T11:05:42.160Z,97.61
2018-12-17T11:09:47.831Z,97.10
2018-12-17T11:13:53.525Z,97.16
2018-12-17T11:17:59.160Z,97.59
2018-12-17T11:22:04.759Z,97.37
2018-12-17T11:26:10.348Z,97.63
2018-12-17T11:30:15.943Z,97.25
2018-12-17T11:34:21.495Z,97.19
2018-12-17T11:38:27.115Z,97.09
2018-12-17T11:42:33.408Z,96.99
2018-12-17T11:46:38.996Z,96.98
2018-12-17T11:50:44.570Z,97.02
2018-12-17T11:54:50.308Z,95.83
2018-12-17T11:58:55.859Z,95.50
2018-12-17T12:03:03.521Z,95.36
2018-12-17T12:07:09.983Z,95.14
2018-12-17T12:11:16.681Z,94.99
2018-12-17T12:15:22.338Z,95.11
2018-12-17T12:19:28.751Z,95.99
2018-12-17T12:23:34.257Z,95.37
2018-12-17T12:27:39.884Z,95.14
2018-12-17T12:31:45.477Z,95.20
2018-12-17T12:35:50.994Z,94.33
2018-12-17T12:39:56.593Z,94.57
2018-12-17T12:44:08.664Z,94.66
2018-12-17T12:48:09.991Z,94.32
2018-12-17T12:52:15.844Z,95.06
2018-12-17T12:56:21.402Z,94.53
2018-12-17T13:00:27.043Z,94.59
2018-12-17T13:04:34.873Z,94.40
2018-12-17T13:08:40.428Z,94.52
2018-12-17T13:12:46.332Z,94.38
2018-12-17T13:16:52.001Z,94.79
2018-12-17T13:20:57.678Z,94.41
2018-12-17T13:25:04.321Z,95.06
2018-12-17T13:29:11.304Z,94.84
2018-12-17T13:33:18.265Z,95.09
2018-12-17T13:37:23.799Z,93.79
2018-12-17T13:41:29.588Z,94.37
2018-12-17T13:45:35.681Z,94.17
2018-12-17T13:49:41.278Z,94.80
2018-12-17T13:53:46.995Z,94.79
2018-12-17T13:57:52.766Z,94.71
2018-12-17T14:01:58.406Z,95.51
2018-12-17T14:06:04.369Z,95.42
2018-12-17T14:10:17.709Z,95.18
2018-12-17T14:14:23.472Z,95.63
2018-12-17T14:18:34.243Z,95.44
2018-12-17T14:22:40.957Z,94.95
2018-12-17T14:26:46.845Z,95.58
2018-12-17T14:30:52.691Z,95.16
2018-12-17T14:34:59.442Z,95.03
2018-12-17T14:39:07.618Z,95.03
2018-12-17T14:43:14.753Z,94.84
2018-12-17T14:47:20.674Z,95.32
2018-12-17T14:51:26.499Z,95.69
2018-12-17T14:55:33.053Z,95.32
2018-12-17T14:59:38.898Z,95.40
2018-12-17T15:03:45.303Z,95.41
2018-12-17T15:07:52.883Z,95.25
2018-12-17T15:11:58.778Z,95.33
2018-12-17T15:16:04.523Z,95.23
2018-12-17T15:20:11.135Z,94.94
2018-12-17T15:24:16.714Z,95.13
2018-12-17T15:28:22.784Z,95.32
2018-12-17T15:32:28.643Z,95.51
2018-12-17T15:36:34.302Z,95.51
2018-12-17T15:40:40.071Z,94.73
2018-12-17T15:44:45.958Z,95.51
2018-12-17T15:48:51.603Z,94.96
2018-12-17T15:52:57.333Z,95.40
2018-12-17T15:57:03.298Z,95.16
2018-12-17T16:01:08.938Z,95.56
2018-12-17T16:05:14.775Z,95.12
2018-12-17T16:09:20.536Z,95.22
2018-12-17T16:17:37.950Z,94.82
2018-12-17T16:21:44.544Z,94.75
2018-12-17T16:25:50.284Z,95.16
2018-12-17T16:29:56.164Z,95.00
2018-12-17T16:34:01.993Z,95.24
2018-12-17T16:38:13.546Z,95.20
2018-12-17T16:42:19.648Z,94.43
2018-12-17T16:46:26.355Z,94.66
2018-12-17T16:50:32.772Z,95.02
2018-12-17T16:54:41.045Z,94.81
2018-12-17T16:58:47.242Z,95.17
2018-12-17T17:02:54.131Z,95.27
2018-12-17T17:07:01.522Z,95.18
2018-12-17T17:11:15.511Z,94.93
2018-12-17T17:15:23.916Z,94.92
2018-12-17T17:19:36.919Z,94.65
2018-12-17T17:23:47.813Z,94.80
2018-12-17T17:27:54.657Z,95.51
2018-12-17T17:32:03.240Z,95.07
2018-12-17T17:36:09.943Z,95.56
2018-12-17T17:40:17.178Z,95.33
2018-12-17T17:44:23.382Z,95.70
2018-12-17T17:48:29.953Z,95.35
2018-12-17T17:52:36.851Z,96.33
2018-12-17T17:56:42.961Z,95.65
2018-12-17T18:00:50.267Z,95.67
2018-12-17T18:04:56.328Z,95.59
2018-12-17T18:09:11.766Z,95.61
2018-12-17T18:17:58.993Z,95.80
2018-12-17T18:26:34.129Z,95.48
2018-12-17T18:30:40.424Z,96.02
2018-12-17T18:34:50.093Z,95.93
2018-12-17T18:38:59.806Z,95.86
2018-12-17T18:43:08.828Z,96.01
2018-12-17T18:47:25.487Z,95.90
2018-12-17T18:51:29.405Z,95.26
2018-12-17T18:55:37.797Z,95.45
2018-12-17T18:59:44.290Z,95.77
2018-12-17T19:03:52.136Z,95.43
2018-12-17T19:07:58.547Z,95.25
2018-12-17T19:12:04.843Z,95.16
2018-12-17T19:16:11.017Z,94.75
2018-12-17T19:20:17.164Z,95.12
2018-12-17T19:24:23.243Z,94.98
2018-12-17T19:28:29.466Z,94.39
2018-12-17T19:32:40.169Z,94.83
2018-12-17T19:36:48.292Z,94.68
2018-12-17T19:40:55.141Z,94.29
2018-12-17T19:45:03.163Z,94.46
2018-12-17T19:49:13.357Z,93.86
2018-12-17T19:53:20.004Z,93.64
2018-12-17T19:57:26.880Z,94.17
2018-12-17T20:01:35.543Z,93.63
2018-12-17T20:05:44.134Z,94.03
2018-12-17T20:09:50.185Z,93.82
2018-12-17T20:13:56.643Z,93.57
2018-12-17T20:18:05.084Z,93.25
2018-12-17T20:22:11.476Z,93.39
2018-12-17T20:26:19.176Z,93.28
2018-12-17T20:30:25.600Z,93.35
2018-12-17T20:34:32.167Z,93.70
2018-12-17T20:38:40.950Z,93.65
2018-12-17T20:42:48.009Z,93.17
2018-12-17T20:46:54.912Z,93.33
2018-12-17T20:51:01.428Z,93.33
2018-12-17T20:55:09.991Z,92.94
2018-12-17T20:59:17.635Z,92.42
2018-12-17T21:03:24.337Z,92.79
2018-12-17T21:07:32.930Z,93.38
2018-12-17T21:11:41.116Z,93.72
2018-12-17T21:15:47.188Z,93.29
2018-12-17T21:19:53.797Z,93.55
2018-12-17T21:24:00.123Z,93.73
2018-12-17T21:28:06.381Z,93.30
2018-12-17T21:32:12.823Z,93.73
2018-12-17T21:36:19.094Z,93.65
2018-12-17T21:40:26.577Z,93.73
2018-12-17T21:44:34.906Z,94.09
2018-12-17T21:48:40.986Z,94.27
2018-12-17T21:52:47.212Z,94.44
2018-12-17T21:56:53.342Z,94.46
2018-12-17T22:01:00.016Z,94.35
2018-12-17T22:05:06.762Z,94.63
2018-12-17T22:09:13.037Z,94.57
2018-12-17T22:13:21.690Z,94.11
2018-12-17T22:17:27.900Z,94.12
2018-12-17T22:21:34.350Z,95.00
2018-12-17T22:25:40.222Z,94.67
2018-12-17T22:29:46.221Z,95.08
2018-12-17T22:33:52.949Z,94.86
2018-12-17T22:38:00.164Z,94.48
2018-12-17T22:42:06.185Z,95.23
2018-12-17T22:46:12.243Z,94.79
2018-12-17T22:50:19.709Z,94.92
2018-12-17T22:54:25.529Z,94.71
2018-12-17T22:58:31.835Z,94.13
2018-12-17T23:02:38.321Z,93.99
2018-12-17T23:06:44.506Z,93.35
2018-12-17T23:11:08.257Z,93.39
2018-12-17T23:15:30.912Z,92.62
2018-12-17T23:19:44.823Z,92.79
2018-12-17T23:23:52.605Z,92.76
2018-12-17T23:27:58.804Z,92.80
2018-12-17T23:32:05.246Z,92.97
2018-12-17T23:36:11.120Z,92.97
2018-12-17T23:40:17.348Z,92.89
2018-12-17T23:44:23.423Z,92.90
2018-12-17T23:48:30.475Z,92.28
2018-12-17T23:52:36.483Z,92.53
2018-12-17T23:56:43.012Z,92.40
